Pagina principale
METAR-TAF:

METAR-TAF

Aeroporti :

Vršac, Serbia

latitudine: 45-09N, longitudine: 021-19E, altezza: 83 m

Osservazione

Il bollettino è stato emesso 30 minuti fa, alle 13:30 UTC
Vento 7 kt da nord, variando fra nord/nord-ovest e est
Temperature 30°C
Umidità 38%
Pressione 1015 hPa
Visibilità 10 km o più
nessuna nube inferiore a 1500 m e nessun cumulonembo

METAR: LYVR 171330Z AUTO 01007KT 340V080 CAVOK 30/14 Q1015

Ora: 16:00 (14:00 UTC)

Previsione

Il bollettino è stato emesso 3 ore e 0 minuti fa, alle 11:00 UTC
Previsione valida dal 17 alle 12 UTC al 18 alle 12 UTC
Vento 8 kt da nord/nord-est
Visibilità 10 km o più
nessuna nube inferiore a 1500 m e nessun cumulonembo

TAF: LYVR 171100Z 1712/1812 02008KT CAVOK TX32/1712Z TN15/1803Z

Osservazioni e previsioni meteorologiche di più di 4000 aeroporti (messaggi METAR e TAF).

Le stazioni disponibili sono rappresentate dai dischi gialli e rossi sulla carta.

Puntare il mouse per vedere il nome della stazione.

Clicca sopra per visualizzare le osservazioni e previsioni meteorologiche.

Per cambiare la mappa : fare clic sui pulsanti verdi con una croce nera per ingrandire, il pulsante verde con un trattino per diminuire, o sulla freccia verde per le mappe adiacenti.


METAR-TAF: